Addicks, Texas
Current Conditions -  °F | °C
As of 11:53 AM on Sunday 25 Jan 2015 (Local Time) from KSGR Reporting Station
Clear Clear  
Wind Chill: 18°   Ceiling: Unl
Heat Index: 18°   Visibility: 10mi
Dew Point:   Wind: 12mph
Humidity: 40%   Direction: 310°NW
Pressure: 30.05"   Gusts: NA
Location:  29.7757°N, 95.6037°W
Report Text: KSGR 251753Z AUTO 31010KT 10SM CLR 18/04 A3005 RMK AO2 SLP177 T01780039 10183 20044 50001
Loading
Personal Weather Stations






























Interactive Weather Map New forecast layout! Learn more

10-Day Weather Forecast

Advertisements
Track Severe Weather on mobile